sensor_id;sensor_type;location;lat;lon;timestamp;pressure;altitude;pressure_sealevel;temperature;humidity
6599;BME280;3335;43.198;27.918;2022-08-19T00:01:39;153351.03;;;24.47;100.00
6599;BME280;3335;43.198;27.918;2022-08-19T00:04:08;153340.88;;;24.42;100.00
6599;BME280;3335;43.198;27.918;2022-08-19T00:06:36;153333.34;;;24.39;100.00
6599;BME280;3335;43.198;27.918;2022-08-19T00:09:05;153313.19;;;24.31;100.00
6599;BME280;3335;43.198;27.918;2022-08-19T00:11:34;153290.50;;;24.22;100.00
6599;BME280;3335;43.198;27.918;2022-08-19T00:14:04;153315.72;;;24.32;100.00
6599;BME280;3335;43.198;27.918;2022-08-19T00:16:31;153330.81;;;24.38;100.00
6599;BME280;3335;43.198;27.918;2022-08-19T00:18:58;153315.72;;;24.32;100.00
6599;BME280;3335;43.198;27.918;2022-08-19T00:21:26;153323.25;;;24.35;100.00
6599;BME280;3335;43.198;27.918;2022-08-19T00:23:54;153298.03;;;24.25;100.00
6599;BME280;3335;43.198;27.918;2022-08-19T00:26:23;153303.09;;;24.27;100.00
6599;BME280;3335;43.198;27.918;2022-08-19T00:28:52;153291.75;;;24.23;100.00
6599;BME280;3335;43.198;27.918;2022-08-19T00:31:19;153269.00;;;24.14;100.00
6599;BME280;3335;43.198;27.918;2022-08-19T00:33:46;153286.69;;;24.21;100.00
6599;BME280;3335;43.198;27.918;2022-08-19T00:36:14;153295.50;;;24.24;100.00
6599;BME280;3335;43.198;27.918;2022-08-19T00:38:41;153300.56;;;24.26;100.00
6599;BME280;3335;43.198;27.918;2022-08-19T00:41:09;153293.03;;;24.23;100.00
6599;BME280;3335;43.198;27.918;2022-08-19T00:43:36;153293.03;;;24.23;100.00
6599;BME280;3335;43.198;27.918;2022-08-19T00:46:05;153272.75;;;24.15;100.00
6599;BME280;3335;43.198;27.918;2022-08-19T00:48:32;153227.38;;;23.97;100.00
6599;BME280;3335;43.198;27.918;2022-08-19T00:51:02;153263.94;;;24.12;100.00
6599;BME280;3335;43.198;27.918;2022-08-19T00:53:32;153251.34;;;24.07;100.00
6599;BME280;3335;43.198;27.918;2022-08-19T00:56:01;153219.84;;;23.94;100.00
6599;BME280;3335;43.198;27.918;2022-08-19T00:58:32;153252.59;;;24.07;100.00
6599;BME280;3335;43.198;27.918;2022-08-19T01:01:00;153232.44;;;23.99;100.00
6599;BME280;3335;43.198;27.918;2022-08-19T01:03:29;153242.53;;;24.03;100.00
6599;BME280;3335;43.198;27.918;2022-08-19T01:05:56;153245.06;;;24.04;100.00
6599;BME280;3335;43.198;27.918;2022-08-19T01:08:23;153250.06;;;24.06;100.00
6599;BME280;3335;43.198;27.918;2022-08-19T01:10:52;153247.53;;;24.05;100.00
6599;BME280;3335;43.198;27.918;2022-08-19T01:13:23;153234.94;;;24.00;100.00
6599;BME280;3335;43.198;27.918;2022-08-19T01:15:56;153228.66;;;23.97;100.00
6599;BME280;3335;43.198;27.918;2022-08-19T01:18:25;153194.63;;;23.84;100.00
6599;BME280;3335;43.198;27.918;2022-08-19T01:20:56;153229.91;;;23.98;100.00
6599;BME280;3335;43.198;27.918;2022-08-19T01:23:27;153222.31;;;23.95;100.00
6599;BME280;3335;43.198;27.918;2022-08-19T01:26:08;153214.78;;;23.92;100.00
6599;BME280;3335;43.198;27.918;2022-08-19T01:28:36;153209.75;;;23.90;100.00
6599;BME280;3335;43.198;27.918;2022-08-19T01:31:04;153188.28;;;23.81;100.00
6599;BME280;3335;43.198;27.918;2022-08-19T01:33:31;153161.84;;;23.71;100.00
6599;BME280;3335;43.198;27.918;2022-08-19T01:36:05;153193.34;;;23.83;100.00
6599;BME280;3335;43.198;27.918;2022-08-19T01:38:35;153193.34;;;23.83;100.00
6599;BME280;3335;43.198;27.918;2022-08-19T01:41:02;153194.63;;;23.84;100.00
6599;BME280;3335;43.198;27.918;2022-08-19T01:43:30;153188.28;;;23.81;100.00
6599;BME280;3335;43.198;27.918;2022-08-19T01:45:56;153176.94;;;23.77;100.00
6599;BME280;3335;43.198;27.918;2022-08-19T01:48:23;153164.34;;;23.72;100.00
6599;BME280;3335;43.198;27.918;2022-08-19T01:50:50;153169.41;;;23.74;100.00
6599;BME280;3335;43.198;27.918;2022-08-19T01:53:17;153159.31;;;23.70;100.00
6599;BME280;3335;43.198;27.918;2022-08-19T01:55:45;153164.34;;;23.72;100.00
6599;BME280;3335;43.198;27.918;2022-08-19T01:58:17;153154.25;;;23.68;100.00
6599;BME280;3335;43.198;27.918;2022-08-19T02:00:45;153137.91;;;23.61;100.00
6599;BME280;3335;43.198;27.918;2022-08-19T02:03:13;153130.31;;;23.58;100.00
6599;BME280;3335;43.198;27.918;2022-08-19T02:05:40;153126.56;;;23.57;100.00
6599;BME280;3335;43.198;27.918;2022-08-19T02:08:08;153126.56;;;23.57;100.00
6599;BME280;3335;43.198;27.918;2022-08-19T02:10:39;153149.25;;;23.66;100.00
6599;BME280;3335;43.198;27.918;2022-08-19T02:13:07;153129.03;;;23.58;100.00
6599;BME280;3335;43.198;27.918;2022-08-19T02:15:34;153151.72;;;23.67;100.00
6599;BME280;3335;43.198;27.918;2022-08-19T02:18:01;153153.00;;;23.67;100.00
6599;BME280;3335;43.198;27.918;2022-08-19T02:20:28;153139.19;;;23.62;100.00
6599;BME280;3335;43.198;27.918;2022-08-19T02:22:55;153146.72;;;23.65;100.00
6599;BME280;3335;43.198;27.918;2022-08-19T02:25:22;153139.19;;;23.62;100.00
6599;BME280;3335;43.198;27.918;2022-08-19T02:27:49;153174.47;;;23.76;100.00
6599;BME280;3335;43.198;27.918;2022-08-19T02:30:18;153164.34;;;23.72;100.00
6599;BME280;3335;43.198;27.918;2022-08-19T02:32:45;153166.88;;;23.73;100.00
6599;BME280;3335;43.198;27.918;2022-08-19T02:35:13;152982.84;;;22.99;100.00
6599;BME280;3335;43.198;27.918;2022-08-19T02:37:41;153108.91;;;23.49;100.00
6599;BME280;3335;43.198;27.918;2022-08-19T02:40:25;153121.50;;;23.54;100.00
6599;BME280;3335;43.198;27.918;2022-08-19T02:42:52;153131.59;;;23.59;100.00
6599;BME280;3335;43.198;27.918;2022-08-19T02:45:21;153156.78;;;23.69;100.00
6599;BME280;3335;43.198;27.918;2022-08-19T02:47:48;153149.25;;;23.66;100.00
6599;BME280;3335;43.198;27.918;2022-08-19T02:50:15;153144.19;;;23.64;100.00
6599;BME280;3335;43.198;27.918;2022-08-19T02:52:42;153120.25;;;23.54;100.00
6599;BME280;3335;43.198;27.918;2022-08-19T02:55:08;153106.38;;;23.48;100.00
6599;BME280;3335;43.198;27.918;2022-08-19T02:57:35;153126.56;;;23.57;100.00
6599;BME280;3335;43.198;27.918;2022-08-19T03:00:04;153101.34;;;23.46;100.00
6599;BME280;3335;43.198;27.918;2022-08-19T03:02:33;153121.50;;;23.54;100.00
6599;BME280;3335;43.198;27.918;2022-08-19T03:05:00;153116.44;;;23.52;100.00
6599;BME280;3335;43.198;27.918;2022-08-19T03:07:28;153106.38;;;23.48;100.00
6599;BME280;3335;43.198;27.918;2022-08-19T03:09:56;153116.44;;;23.52;100.00
6599;BME280;3335;43.198;27.918;2022-08-19T03:12:22;153096.28;;;23.44;100.00
6599;BME280;3335;43.198;27.918;2022-08-19T03:14:49;153091.22;;;23.42;100.00
6599;BME280;3335;43.198;27.918;2022-08-19T03:17:17;153091.22;;;23.42;100.00
6599;BME280;3335;43.198;27.918;2022-08-19T03:19:45;153098.81;;;23.45;100.00
6599;BME280;3335;43.198;27.918;2022-08-19T03:22:12;153086.16;;;23.40;100.00
6599;BME280;3335;43.198;27.918;2022-08-19T03:24:39;153074.84;;;23.36;100.00
6599;BME280;3335;43.198;27.918;2022-08-19T03:27:06;153081.09;;;23.38;100.00
6599;BME280;3335;43.198;27.918;2022-08-19T03:29:36;153060.97;;;23.30;100.00
6599;BME280;3335;43.198;27.918;2022-08-19T03:32:05;153078.63;;;23.37;100.00
6599;BME280;3335;43.198;27.918;2022-08-19T03:34:33;153087.44;;;23.41;100.00
6599;BME280;3335;43.198;27.918;2022-08-19T03:37:06;153083.63;;;23.39;100.00
6599;BME280;3335;43.198;27.918;2022-08-19T03:39:35;153093.72;;;23.43;100.00
6599;BME280;3335;43.198;27.918;2022-08-19T03:42:02;153096.28;;;23.44;100.00
6599;BME280;3335;43.198;27.918;2022-08-19T03:44:31;153093.72;;;23.43;100.00
6599;BME280;3335;43.198;27.918;2022-08-19T03:46:59;153078.63;;;23.37;100.00
6599;BME280;3335;43.198;27.918;2022-08-19T03:49:28;153081.09;;;23.38;100.00
6599;BME280;3335;43.198;27.918;2022-08-19T03:51:57;152987.88;;;23.01;100.00
6599;BME280;3335;43.198;27.918;2022-08-19T03:54:27;153043.34;;;23.23;100.00
6599;BME280;3335;43.198;27.918;2022-08-19T03:56:56;153050.88;;;23.26;100.00
6599;BME280;3335;43.198;27.918;2022-08-19T03:59:26;152892.06;;;22.62;100.00
6599;BME280;3335;43.198;27.918;2022-08-19T04:01:54;153045.81;;;23.24;100.00
6599;BME280;3335;43.198;27.918;2022-08-19T04:04:22;153059.69;;;23.30;100.00
6599;BME280;3335;43.198;27.918;2022-08-19T04:06:50;153058.44;;;23.29;100.00
6599;BME280;3335;43.198;27.918;2022-08-19T04:09:19;153054.69;;;23.28;100.00
6599;BME280;3335;43.198;27.918;2022-08-19T04:11:50;153073.56;;;23.35;100.00
6599;BME280;3335;43.198;27.918;2022-08-19T04:14:21;153067.28;;;23.33;100.00
6599;BME280;3335;43.198;27.918;2022-08-19T04:16:48;153086.16;;;23.40;100.00
6599;BME280;3335;43.198;27.918;2022-08-19T04:19:17;153096.28;;;23.44;100.00
6599;BME280;3335;43.198;27.918;2022-08-19T04:21:45;153066.03;;;23.32;100.00
6599;BME280;3335;43.198;27.918;2022-08-19T04:24:13;153093.72;;;23.43;100.00
6599;BME280;3335;43.198;27.918;2022-08-19T04:26:41;153102.63;;;23.47;100.00
6599;BME280;3335;43.198;27.918;2022-08-19T04:29:11;153111.44;;;23.50;100.00
6599;BME280;3335;43.198;27.918;2022-08-19T04:31:39;153144.19;;;23.64;100.00
6599;BME280;3335;43.198;27.918;2022-08-19T04:37:24;153169.41;;;23.74;100.00
6599;BME280;3335;43.198;27.918;2022-08-19T04:39:52;153170.66;;;23.74;100.00
6599;BME280;3335;43.198;27.918;2022-08-19T04:42:36;153179.47;;;23.78;100.00
6599;BME280;3335;43.198;27.918;2022-08-19T04:45:10;153192.09;;;23.83;100.00
6599;BME280;3335;43.198;27.918;2022-08-19T04:47:41;153203.44;;;23.87;100.00
6599;BME280;3335;43.198;27.918;2022-08-19T04:50:09;153195.88;;;23.84;100.00
6599;BME280;3335;43.198;27.918;2022-08-19T04:52:37;153216.03;;;23.92;100.00
6599;BME280;3335;43.198;27.918;2022-08-19T04:55:08;153224.84;;;23.96;100.00
6599;BME280;3335;43.198;27.918;2022-08-19T04:57:35;153228.66;;;23.97;100.00
6599;BME280;3335;43.198;27.918;2022-08-19T05:00:09;153232.44;;;23.99;100.00
6599;BME280;3335;43.198;27.918;2022-08-19T05:02:36;153242.53;;;24.03;100.00
6599;BME280;3335;43.198;27.918;2022-08-19T05:05:04;153267.75;;;24.13;100.00
6599;BME280;3335;43.198;27.918;2022-08-19T05:07:31;153280.41;;;24.18;100.00
6599;BME280;3335;43.198;27.918;2022-08-19T05:09:58;153291.75;;;24.23;100.00
6599;BME280;3335;43.198;27.918;2022-08-19T05:12:26;153310.66;;;24.30;100.00
6599;BME280;3335;43.198;27.918;2022-08-19T05:14:54;153320.72;;;24.34;100.00
6599;BME280;3335;43.198;27.918;2022-08-19T05:17:23;153338.41;;;24.42;100.00
6599;BME280;3335;43.198;27.918;2022-08-19T05:19:50;153349.75;;;24.46;100.00
6599;BME280;3335;43.198;27.918;2022-08-19T05:22:34;153376.19;;;24.57;100.00
6599;BME280;3335;43.198;27.918;2022-08-19T05:25:04;153403.97;;;24.68;100.00
6599;BME280;3335;43.198;27.918;2022-08-19T05:27:31;153424.13;;;24.76;100.00
6599;BME280;3335;43.198;27.918;2022-08-19T05:29:58;153444.34;;;24.84;100.00
6599;BME280;3335;43.198;27.918;2022-08-19T05:32:27;153474.63;;;24.96;100.00
6599;BME280;3335;43.198;27.918;2022-08-19T05:34:54;153502.41;;;25.07;100.00
6599;BME280;3335;43.198;27.918;2022-08-19T05:37:21;153530.19;;;25.18;100.00
6599;BME280;3335;43.198;27.918;2022-08-19T05:39:48;153560.44;;;25.31;100.00
6599;BME280;3335;43.198;27.918;2022-08-19T05:42:15;153586.94;;;25.41;100.00
6599;BME280;3335;43.198;27.918;2022-08-19T05:44:44;153600.84;;;25.47;100.00
6599;BME280;3335;43.198;27.918;2022-08-19T05:47:12;153645.03;;;25.64;100.00
6599;BME280;3335;43.198;27.918;2022-08-19T05:49:41;153669.00;;;25.74;100.00
6599;BME280;3335;43.198;27.918;2022-08-19T05:52:10;153695.53;;;25.85;100.00
6599;BME280;3335;43.198;27.918;2022-08-19T05:54:38;153723.25;;;25.96;100.00
6599;BME280;3335;43.198;27.918;2022-08-19T05:57:08;153724.53;;;25.96;100.00
6599;BME280;3335;43.198;27.918;2022-08-19T05:59:35;153742.22;;;26.03;100.00
6599;BME280;3335;43.198;27.918;2022-08-19T06:02:03;153790.25;;;26.23;100.00
6599;BME280;3335;43.198;27.918;2022-08-19T06:04:31;153817.97;;;26.34;100.00
6599;BME280;3335;43.198;27.918;2022-08-19T06:07:00;153835.69;;;26.41;100.00
6599;BME280;3335;43.198;27.918;2022-08-19T06:09:28;153858.41;;;26.50;100.00
6599;BME280;3335;43.198;27.918;2022-08-19T06:11:56;153854.59;;;26.48;100.00
6599;BME280;3335;43.198;27.918;2022-08-19T06:14:28;153900.03;;;26.67;100.00
6599;BME280;3335;43.198;27.918;2022-08-19T06:16:55;153922.78;;;26.76;100.00
6599;BME280;3335;43.198;27.918;2022-08-19T06:19:23;153951.88;;;26.87;100.00
6599;BME280;3335;43.198;27.918;2022-08-19T06:21:51;153972.06;;;26.95;100.00
6599;BME280;3335;43.198;27.918;2022-08-19T06:24:22;153988.50;;;27.02;100.00
6599;BME280;3335;43.198;27.918;2022-08-19T06:26:51;154007.44;;;27.10;100.00
6599;BME280;3335;43.198;27.918;2022-08-19T06:29:21;154023.88;;;27.16;100.00
6599;BME280;3335;43.198;27.918;2022-08-19T06:31:51;154042.81;;;27.24;100.00
6599;BME280;3335;43.198;27.918;2022-08-19T06:34:19;154070.59;;;27.35;100.00
6599;BME280;3335;43.198;27.918;2022-08-19T06:36:48;154083.25;;;27.40;100.00
6599;BME280;3335;43.198;27.918;2022-08-19T06:39:17;154104.75;;;27.49;100.00
6599;BME280;3335;43.198;27.918;2022-08-19T06:41:48;154118.66;;;27.54;100.00
6599;BME280;3335;43.198;27.918;2022-08-19T06:44:15;154133.84;;;27.60;100.00
6599;BME280;3335;43.198;27.918;2022-08-19T06:46:43;154156.56;;;27.69;100.00
6599;BME280;3335;43.198;27.918;2022-08-19T06:49:10;154171.69;;;27.75;100.00
6599;BME280;3335;43.198;27.918;2022-08-19T06:51:40;154191.94;;;27.83;100.00
6599;BME280;3335;43.198;27.918;2022-08-19T06:54:07;154208.34;;;27.90;100.00
6599;BME280;3335;43.198;27.918;2022-08-19T06:56:34;154224.78;;;27.97;100.00
6599;BME280;3335;43.198;27.918;2022-08-19T06:59:05;154246.28;;;28.05;100.00
6599;BME280;3335;43.198;27.918;2022-08-19T07:01:34;154269.06;;;28.14;100.00
6599;BME280;3335;43.198;27.918;2022-08-19T07:04:04;154285.50;;;28.21;100.00
6599;BME280;3335;43.198;27.918;2022-08-19T07:06:31;154304.44;;;28.28;100.00
6599;BME280;3335;43.198;27.918;2022-08-19T07:08:58;154295.59;;;28.25;100.00
6599;BME280;3335;43.198;27.918;2022-08-19T07:11:25;154336.06;;;28.41;100.00
6599;BME280;3335;43.198;27.918;2022-08-19T07:13:52;154358.81;;;28.50;100.00
6599;BME280;3335;43.198;27.918;2022-08-19T07:16:22;154262.75;;;28.12;100.00
6599;BME280;3335;43.198;27.918;2022-08-19T07:18:50;154392.94;;;28.64;100.00
6599;BME280;3335;43.198;27.918;2022-08-19T07:21:19;154401.78;;;28.67;100.00
6599;BME280;3335;43.198;27.918;2022-08-19T07:23:46;154413.22;;;28.72;100.00
6599;BME280;3335;43.198;27.918;2022-08-19T07:26:16;154427.13;;;28.78;100.00
6599;BME280;3335;43.198;27.918;2022-08-19T07:28:45;154454.94;;;28.89;100.00
6599;BME280;3335;43.198;27.918;2022-08-19T07:31:13;154471.34;;;28.95;100.00
6599;BME280;3335;43.198;27.918;2022-08-19T07:33:41;154482.72;;;29.00;100.00
6599;BME280;3335;43.198;27.918;2022-08-19T07:36:10;154465.06;;;28.93;100.00
6599;BME280;3335;43.198;27.918;2022-08-19T07:38:38;154504.22;;;29.08;100.00
6599;BME280;3335;43.198;27.918;2022-08-19T07:41:07;154525.75;;;29.17;100.00
6599;BME280;3335;43.198;27.918;2022-08-19T07:43:35;154543.44;;;29.24;100.00
6599;BME280;3335;43.198;27.918;2022-08-19T07:46:02;154558.66;;;29.30;100.00
6599;BME280;3335;43.198;27.918;2022-08-19T07:48:29;154573.84;;;29.36;100.00
6599;BME280;3335;43.198;27.918;2022-08-19T07:51:00;154587.72;;;29.42;100.00
6599;BME280;3335;43.198;27.918;2022-08-19T07:53:28;154604.19;;;29.48;100.00
6599;BME280;3335;43.198;27.918;2022-08-19T07:55:56;154616.84;;;29.53;100.00
6599;BME280;3335;43.198;27.918;2022-08-19T07:58:30;154635.78;;;29.61;100.00
6599;BME280;3335;43.198;27.918;2022-08-19T08:00:58;154649.72;;;29.67;100.00
6599;BME280;3335;43.198;27.918;2022-08-19T08:03:25;154662.38;;;29.72;100.00
6599;BME280;3335;43.198;27.918;2022-08-19T08:06:08;154680.09;;;29.79;100.00
6599;BME280;3335;43.198;27.918;2022-08-19T08:08:52;154682.59;;;29.80;100.00
6599;BME280;3335;43.198;27.918;2022-08-19T08:11:38;154687.66;;;29.82;100.00
6599;BME280;3335;43.198;27.918;2022-08-19T08:14:05;154648.44;;;29.66;100.00
6599;BME280;3335;43.198;27.918;2022-08-19T08:16:34;154716.84;;;29.93;100.00
6599;BME280;3335;43.198;27.918;2022-08-19T08:19:01;154728.22;;;29.98;100.00
6599;BME280;3335;43.198;27.918;2022-08-19T08:21:29;154745.91;;;30.05;100.00
6599;BME280;3335;43.198;27.918;2022-08-19T08:23:56;154761.09;;;30.11;100.00
6599;BME280;3335;43.198;27.918;2022-08-19T08:26:23;154748.44;;;30.06;100.00
6599;BME280;3335;43.198;27.918;2022-08-19T08:28:51;154785.13;;;30.21;100.00
6599;BME280;3335;43.198;27.918;2022-08-19T08:31:18;154806.63;;;30.29;100.00
6599;BME280;3335;43.198;27.918;2022-08-19T08:33:46;154824.38;;;30.36;100.00
6599;BME280;3335;43.198;27.918;2022-08-19T08:36:13;154839.53;;;30.42;100.00
6599;BME280;3335;43.198;27.918;2022-08-19T08:38:43;154848.41;;;30.46;100.00
6599;BME280;3335;43.198;27.918;2022-08-19T08:41:17;154848.41;;;30.46;100.00
6599;BME280;3335;43.198;27.918;2022-08-19T08:43:48;154877.53;;;30.58;100.00
6599;BME280;3335;43.198;27.918;2022-08-19T08:46:21;154902.84;;;30.68;100.00
6599;BME280;3335;43.198;27.918;2022-08-19T08:48:52;154885.13;;;30.61;100.00
6599;BME280;3335;43.198;27.918;2022-08-19T08:51:24;154890.19;;;30.63;100.00
6599;BME280;3335;43.198;27.918;2022-08-19T08:53:54;154915.53;;;30.73;100.00
6599;BME280;3335;43.198;27.918;2022-08-19T08:56:22;154933.22;;;30.80;100.00
6599;BME280;3335;43.198;27.918;2022-08-19T08:58:55;154912.97;;;30.72;100.00
6599;BME280;3335;43.198;27.918;2022-08-19T09:01:23;154912.97;;;30.72;100.00
6599;BME280;3335;43.198;27.918;2022-08-19T09:03:51;154926.91;;;30.77;100.00
6599;BME280;3335;43.198;27.918;2022-08-19T09:06:24;154964.88;;;30.93;100.00
6599;BME280;3335;43.198;27.918;2022-08-19T09:09:03;154978.81;;;30.98;100.00
6599;BME280;3335;43.198;27.918;2022-08-19T09:11:44;154986.44;;;31.01;100.00
6599;BME280;3335;43.198;27.918;2022-08-19T09:14:26;155011.75;;;31.11;100.00
6599;BME280;3335;43.198;27.918;2022-08-19T09:16:57;155004.13;;;31.08;100.00
6599;BME280;3335;43.198;27.918;2022-08-19T09:19:25;154953.50;;;30.88;100.00
6599;BME280;3335;43.198;27.918;2022-08-19T09:21:52;154985.13;;;31.01;100.00
6599;BME280;3335;43.198;27.918;2022-08-19T09:24:20;155026.91;;;31.17;100.00
6599;BME280;3335;43.198;27.918;2022-08-19T09:26:47;155053.50;;;31.28;100.00
6599;BME280;3335;43.198;27.918;2022-08-19T09:29:14;155047.22;;;31.25;100.00
6599;BME280;3335;43.198;27.918;2022-08-19T09:31:41;155006.69;;;31.09;100.00
6599;BME280;3335;43.198;27.918;2022-08-19T09:34:08;154995.28;;;31.05;100.00
6599;BME280;3335;43.198;27.918;2022-08-19T09:36:35;154995.28;;;31.05;100.00
6599;BME280;3335;43.198;27.918;2022-08-19T09:39:05;155029.47;;;31.18;100.00
6599;BME280;3335;43.198;27.918;2022-08-19T09:41:33;155047.22;;;31.25;96.87
6599;BME280;3335;43.198;27.918;2022-08-19T09:44:00;155082.66;;;31.40;96.57
6599;BME280;3335;43.198;27.918;2022-08-19T09:46:28;155107.97;;;31.50;97.18
6599;BME280;3335;43.198;27.918;2022-08-19T09:48:58;155092.78;;;31.44;99.45
6599;BME280;3335;43.198;27.918;2022-08-19T09:51:26;155009.22;;;31.10;98.17
6599;BME280;3335;43.198;27.918;2022-08-19T09:53:58;155167.53;;;31.74;99.46
6599;BME280;3335;43.198;27.918;2022-08-19T09:56:25;155199.19;;;31.86;94.98
6599;BME280;3335;43.198;27.918;2022-08-19T09:58:53;155225.78;;;31.97;94.69
6599;BME280;3335;43.198;27.918;2022-08-19T10:01:22;155265.06;;;32.12;94.61
6599;BME280;3335;43.198;27.918;2022-08-19T10:03:50;155295.47;;;32.25;95.18
6599;BME280;3335;43.198;27.918;2022-08-19T10:06:18;155273.97;;;32.16;93.98
6599;BME280;3335;43.198;27.918;2022-08-19T10:08:45;155191.59;;;31.83;96.11
6599;BME280;3335;43.198;27.918;2022-08-19T10:11:13;155201.72;;;31.87;91.81
6599;BME280;3335;43.198;27.918;2022-08-19T10:13:43;155227.06;;;31.97;89.33
6599;BME280;3335;43.198;27.918;2022-08-19T10:16:13;155251.13;;;32.07;90.85
6599;BME280;3335;43.198;27.918;2022-08-19T10:18:40;155257.44;;;32.09;93.09
6599;BME280;3335;43.198;27.918;2022-08-19T10:21:11;155272.69;;;32.16;92.88
6599;BME280;3335;43.198;27.918;2022-08-19T10:23:40;155280.28;;;32.19;89.78
6599;BME280;3335;43.198;27.918;2022-08-19T10:26:09;155282.81;;;32.20;89.92
6599;BME280;3335;43.198;27.918;2022-08-19T10:28:36;155333.50;;;32.40;90.26
6599;BME280;3335;43.198;27.918;2022-08-19T10:31:05;155343.63;;;32.44;90.69
6599;BME280;3335;43.198;27.918;2022-08-19T10:33:35;155376.53;;;32.57;86.48
6599;BME280;3335;43.198;27.918;2022-08-19T10:36:04;155389.22;;;32.62;87.11
6599;BME280;3335;43.198;27.918;2022-08-19T10:38:31;155455.13;;;32.88;86.20
6599;BME280;3335;43.198;27.918;2022-08-19T10:41:06;155515.94;;;33.13;81.69
6599;BME280;3335;43.198;27.918;2022-08-19T10:43:33;155554.03;;;33.28;89.74
6599;BME280;3335;43.198;27.918;2022-08-19T10:46:02;155579.38;;;33.38;100.00
6599;BME280;3335;43.198;27.918;2022-08-19T10:48:31;155509.63;;;33.10;100.00
6599;BME280;3335;43.198;27.918;2022-08-19T10:50:59;155535.03;;;33.20;100.00
6599;BME280;3335;43.198;27.918;2022-08-19T10:53:44;155515.94;;;33.13;100.00
6599;BME280;3335;43.198;27.918;2022-08-19T10:56:11;155529.94;;;33.18;100.00
6599;BME280;3335;43.198;27.918;2022-08-19T10:58:55;155566.69;;;33.33;100.00
6599;BME280;3335;43.198;27.918;2022-08-19T11:01:23;155594.59;;;33.44;100.00
6599;BME280;3335;43.198;27.918;2022-08-19T11:03:50;155613.59;;;33.52;100.00
6599;BME280;3335;43.198;27.918;2022-08-19T11:06:19;155604.72;;;33.48;100.00
6599;BME280;3335;43.198;27.918;2022-08-19T11:08:46;155627.53;;;33.57;100.00
6599;BME280;3335;43.198;27.918;2022-08-19T11:11:13;155623.72;;;33.56;100.00
6599;BME280;3335;43.198;27.918;2022-08-19T11:13:41;155622.44;;;33.55;100.00
6599;BME280;3335;43.198;27.918;2022-08-19T11:16:11;155635.13;;;33.60;100.00
6599;BME280;3335;43.198;27.918;2022-08-19T11:18:41;155574.28;;;33.36;100.00
6599;BME280;3335;43.198;27.918;2022-08-19T11:21:11;155581.91;;;33.39;100.00
6599;BME280;3335;43.198;27.918;2022-08-19T11:23:40;155616.13;;;33.53;100.00
6599;BME280;3335;43.198;27.918;2022-08-19T11:26:07;155571.78;;;33.35;100.00
6599;BME280;3335;43.198;27.918;2022-08-19T11:28:34;155442.50;;;32.83;100.00
6599;BME280;3335;43.198;27.918;2022-08-19T11:31:01;155308.16;;;32.30;100.00
6599;BME280;3335;43.198;27.918;2022-08-19T11:33:29;155243.50;;;32.04;100.00
6599;BME280;3335;43.198;27.918;2022-08-19T11:35:57;155301.78;;;32.27;100.00
6599;BME280;3335;43.198;27.918;2022-08-19T11:38:26;155409.53;;;32.70;100.00
6599;BME280;3335;43.198;27.918;2022-08-19T11:41:02;155489.38;;;33.02;100.00
6599;BME280;3335;43.198;27.918;2022-08-19T11:43:30;155427.28;;;32.77;100.00
6599;BME280;3335;43.198;27.918;2022-08-19T11:45:57;155267.59;;;32.13;100.00
6599;BME280;3335;43.198;27.918;2022-08-19T11:48:25;155124.47;;;31.56;100.00
6599;BME280;3335;43.198;27.918;2022-08-19T11:50:53;155125.72;;;31.57;100.00
6599;BME280;3335;43.198;27.918;2022-08-19T11:53:22;155214.38;;;31.92;100.00
6599;BME280;3335;43.198;27.918;2022-08-19T11:55:53;155330.94;;;32.39;100.00
6599;BME280;3335;43.198;27.918;2022-08-19T11:58:22;155333.50;;;32.40;100.00
6599;BME280;3335;43.198;27.918;2022-08-19T12:00:50;155361.31;;;32.51;100.00
6599;BME280;3335;43.198;27.918;2022-08-19T12:03:18;155391.81;;;32.63;100.00
6599;BME280;3335;43.198;27.918;2022-08-19T12:05:45;155438.69;;;32.82;100.00
6599;BME280;3335;43.198;27.918;2022-08-19T12:08:12;155510.91;;;33.11;100.00
6599;BME280;3335;43.198;27.918;2022-08-19T12:10:40;155500.78;;;33.07;100.00
6599;BME280;3335;43.198;27.918;2022-08-19T12:13:08;155460.19;;;32.90;100.00
6599;BME280;3335;43.198;27.918;2022-08-19T12:15:37;155458.94;;;32.90;100.00
6599;BME280;3335;43.198;27.918;2022-08-19T12:18:06;155396.84;;;32.65;100.00
6599;BME280;3335;43.198;27.918;2022-08-19T12:20:35;155386.66;;;32.61;100.00
6599;BME280;3335;43.198;27.918;2022-08-19T12:23:02;155396.84;;;32.65;100.00
6599;BME280;3335;43.198;27.918;2022-08-19T12:25:30;155330.94;;;32.39;100.00
6599;BME280;3335;43.198;27.918;2022-08-19T12:27:58;155404.47;;;32.68;100.00
6599;BME280;3335;43.198;27.918;2022-08-19T12:30:25;155252.38;;;32.07;100.00
6599;BME280;3335;43.198;27.918;2022-08-19T12:32:54;155422.19;;;32.75;100.00
6599;BME280;3335;43.198;27.918;2022-08-19T12:35:21;155420.91;;;32.75;100.00
6599;BME280;3335;43.198;27.918;2022-08-19T12:37:48;155418.41;;;32.74;100.00
6599;BME280;3335;43.198;27.918;2022-08-19T12:40:16;155360.06;;;32.50;100.00
6599;BME280;3335;43.198;27.918;2022-08-19T12:42:44;155368.97;;;32.54;100.00
6599;BME280;3335;43.198;27.918;2022-08-19T12:45:13;155382.91;;;32.60;100.00
6599;BME280;3335;43.198;27.918;2022-08-19T12:47:40;155399.38;;;32.66;100.00
6599;BME280;3335;43.198;27.918;2022-08-19T12:50:08;155363.88;;;32.52;100.00
6599;BME280;3335;43.198;27.918;2022-08-19T12:52:36;155376.53;;;32.57;100.00
6599;BME280;3335;43.198;27.918;2022-08-19T12:55:05;155351.19;;;32.47;100.00
6599;BME280;3335;43.198;27.918;2022-08-19T12:57:32;155341.06;;;32.43;100.00
6599;BME280;3335;43.198;27.918;2022-08-19T13:00:05;155353.75;;;32.48;100.00
6599;BME280;3335;43.198;27.918;2022-08-19T13:02:36;155372.72;;;32.55;100.00